sensor_id;sensor_type;location;lat;lon;timestamp;P1;durP1;ratioP1;P2;durP2;ratioP2
2724;SDS011;1370;52.596;13.112;2023-03-17T00:01:55;4.87;;;4.47;;
2724;SDS011;1370;52.596;13.112;2023-03-17T00:04:21;3.90;;;3.57;;
2724;SDS011;1370;52.596;13.112;2023-03-17T00:06:48;5.33;;;4.80;;
2724;SDS011;1370;52.596;13.112;2023-03-17T00:09:14;5.77;;;3.53;;
2724;SDS011;1370;52.596;13.112;2023-03-17T00:11:42;5.80;;;4.70;;
2724;SDS011;1370;52.596;13.112;2023-03-17T00:14:08;7.13;;;4.90;;
2724;SDS011;1370;52.596;13.112;2023-03-17T00:16:36;4.33;;;4.00;;
2724;SDS011;1370;52.596;13.112;2023-03-17T00:19:02;5.63;;;4.87;;
2724;SDS011;1370;52.596;13.112;2023-03-17T00:21:31;10.43;;;3.60;;
2724;SDS011;1370;52.596;13.112;2023-03-17T00:23:58;4.87;;;3.93;;
2724;SDS011;1370;52.596;13.112;2023-03-17T00:26:24;6.33;;;4.47;;
2724;SDS011;1370;52.596;13.112;2023-03-17T00:28:49;4.40;;;4.00;;
2724;SDS011;1370;52.596;13.112;2023-03-17T00:31:19;5.43;;;4.40;;
2724;SDS011;1370;52.596;13.112;2023-03-17T00:33:47;8.63;;;4.83;;
2724;SDS011;1370;52.596;13.112;2023-03-17T00:36:17;6.40;;;4.60;;
2724;SDS011;1370;52.596;13.112;2023-03-17T00:38:45;5.00;;;4.60;;
2724;SDS011;1370;52.596;13.112;2023-03-17T00:41:11;5.43;;;4.90;;
2724;SDS011;1370;52.596;13.112;2023-03-17T00:43:37;8.53;;;4.73;;
2724;SDS011;1370;52.596;13.112;2023-03-17T00:46:12;4.33;;;4.03;;
2724;SDS011;1370;52.596;13.112;2023-03-17T00:48:40;5.67;;;5.17;;
2724;SDS011;1370;52.596;13.112;2023-03-17T00:51:07;8.40;;;5.23;;
2724;SDS011;1370;52.596;13.112;2023-03-17T00:53:32;6.03;;;3.90;;
2724;SDS011;1370;52.596;13.112;2023-03-17T00:55:58;8.37;;;6.80;;
2724;SDS011;1370;52.596;13.112;2023-03-17T00:58:24;7.57;;;5.47;;
2724;SDS011;1370;52.596;13.112;2023-03-17T01:00:51;15.13;;;5.40;;
2724;SDS011;1370;52.596;13.112;2023-03-17T01:03:17;9.27;;;5.00;;
2724;SDS011;1370;52.596;13.112;2023-03-17T01:05:43;5.87;;;4.70;;
2724;SDS011;1370;52.596;13.112;2023-03-17T01:08:10;10.13;;;5.90;;
2724;SDS011;1370;52.596;13.112;2023-03-17T01:10:35;8.13;;;4.67;;
2724;SDS011;1370;52.596;13.112;2023-03-17T01:13:01;6.23;;;4.90;;
2724;SDS011;1370;52.596;13.112;2023-03-17T01:15:28;13.43;;;5.20;;
2724;SDS011;1370;52.596;13.112;2023-03-17T01:17:55;5.70;;;5.30;;
2724;SDS011;1370;52.596;13.112;2023-03-17T01:20:30;6.93;;;6.10;;
2724;SDS011;1370;52.596;13.112;2023-03-17T01:22:57;8.73;;;6.10;;
2724;SDS011;1370;52.596;13.112;2023-03-17T01:25:23;11.10;;;6.50;;
2724;SDS011;1370;52.596;13.112;2023-03-17T01:27:48;7.43;;;6.70;;
2724;SDS011;1370;52.596;13.112;2023-03-17T01:33:03;7.57;;;5.43;;
2724;SDS011;1370;52.596;13.112;2023-03-17T01:35:31;14.17;;;6.07;;
2724;SDS011;1370;52.596;13.112;2023-03-17T01:37:57;8.20;;;6.10;;
2724;SDS011;1370;52.596;13.112;2023-03-17T01:40:23;7.77;;;5.90;;
2724;SDS011;1370;52.596;13.112;2023-03-17T01:42:53;11.00;;;5.57;;
2724;SDS011;1370;52.596;13.112;2023-03-17T01:48:27;6.83;;;5.37;;
2724;SDS011;1370;52.596;13.112;2023-03-17T01:50:54;7.20;;;5.70;;
2724;SDS011;1370;52.596;13.112;2023-03-17T01:53:20;7.90;;;5.37;;
2724;SDS011;1370;52.596;13.112;2023-03-17T01:55:46;5.60;;;5.07;;
2724;SDS011;1370;52.596;13.112;2023-03-17T01:58:13;7.07;;;5.97;;
2724;SDS011;1370;52.596;13.112;2023-03-17T02:00:39;7.43;;;5.33;;
2724;SDS011;1370;52.596;13.112;2023-03-17T02:03:05;7.77;;;6.10;;
2724;SDS011;1370;52.596;13.112;2023-03-17T02:05:30;6.17;;;5.67;;
2724;SDS011;1370;52.596;13.112;2023-03-17T02:07:57;6.93;;;4.90;;
2724;SDS011;1370;52.596;13.112;2023-03-17T02:10:23;6.20;;;4.60;;
2724;SDS011;1370;52.596;13.112;2023-03-17T02:12:50;9.77;;;5.77;;
2724;SDS011;1370;52.596;13.112;2023-03-17T02:15:18;8.23;;;5.27;;
2724;SDS011;1370;52.596;13.112;2023-03-17T02:17:43;6.17;;;5.67;;
2724;SDS011;1370;52.596;13.112;2023-03-17T02:22:43;11.00;;;5.20;;
2724;SDS011;1370;52.596;13.112;2023-03-17T02:25:10;7.80;;;5.87;;
2724;SDS011;1370;52.596;13.112;2023-03-17T02:27:40;9.40;;;5.30;;
2724;SDS011;1370;52.596;13.112;2023-03-17T02:30:13;7.67;;;6.03;;
2724;SDS011;1370;52.596;13.112;2023-03-17T02:32:40;9.37;;;6.87;;
2724;SDS011;1370;52.596;13.112;2023-03-17T02:35:06;7.43;;;5.93;;
2724;SDS011;1370;52.596;13.112;2023-03-17T02:37:32;6.37;;;5.73;;
2724;SDS011;1370;52.596;13.112;2023-03-17T02:39:57;6.63;;;5.73;;
2724;SDS011;1370;52.596;13.112;2023-03-17T02:42:25;10.10;;;6.20;;
2724;SDS011;1370;52.596;13.112;2023-03-17T02:44:50;10.30;;;6.40;;
2724;SDS011;1370;52.596;13.112;2023-03-17T02:47:16;7.13;;;5.43;;
2724;SDS011;1370;52.596;13.112;2023-03-17T02:49:41;12.23;;;6.43;;
2724;SDS011;1370;52.596;13.112;2023-03-17T02:52:07;15.50;;;7.10;;
2724;SDS011;1370;52.596;13.112;2023-03-17T02:54:33;5.87;;;5.33;;
2724;SDS011;1370;52.596;13.112;2023-03-17T02:56:58;5.93;;;5.40;;
2724;SDS011;1370;52.596;13.112;2023-03-17T02:59:24;12.30;;;6.93;;
2724;SDS011;1370;52.596;13.112;2023-03-17T03:01:49;6.50;;;4.93;;
2724;SDS011;1370;52.596;13.112;2023-03-17T03:04:15;6.87;;;6.20;;
2724;SDS011;1370;52.596;13.112;2023-03-17T03:06:41;5.63;;;4.93;;
2724;SDS011;1370;52.596;13.112;2023-03-17T03:09:08;5.57;;;5.07;;
2724;SDS011;1370;52.596;13.112;2023-03-17T03:11:35;6.50;;;5.67;;
2724;SDS011;1370;52.596;13.112;2023-03-17T03:14:06;6.90;;;5.63;;
2724;SDS011;1370;52.596;13.112;2023-03-17T03:16:32;7.50;;;6.30;;
2724;SDS011;1370;52.596;13.112;2023-03-17T03:18:57;10.30;;;7.10;;
2724;SDS011;1370;52.596;13.112;2023-03-17T03:21:23;10.37;;;6.07;;
2724;SDS011;1370;52.596;13.112;2023-03-17T03:23:50;12.90;;;7.60;;
2724;SDS011;1370;52.596;13.112;2023-03-17T03:26:16;8.80;;;5.90;;
2724;SDS011;1370;52.596;13.112;2023-03-17T03:28:41;7.00;;;5.90;;
2724;SDS011;1370;52.596;13.112;2023-03-17T03:31:13;6.83;;;6.13;;
2724;SDS011;1370;52.596;13.112;2023-03-17T03:33:39;15.43;;;6.57;;
2724;SDS011;1370;52.596;13.112;2023-03-17T03:36:05;9.80;;;6.00;;
2724;SDS011;1370;52.596;13.112;2023-03-17T03:38:31;8.10;;;7.30;;
2724;SDS011;1370;52.596;13.112;2023-03-17T03:40:57;14.37;;;6.03;;
2724;SDS011;1370;52.596;13.112;2023-03-17T03:43:25;6.90;;;6.30;;
2724;SDS011;1370;52.596;13.112;2023-03-17T03:45:51;6.50;;;5.90;;
2724;SDS011;1370;52.596;13.112;2023-03-17T03:48:16;12.73;;;6.33;;
2724;SDS011;1370;52.596;13.112;2023-03-17T03:50:42;8.43;;;6.30;;
2724;SDS011;1370;52.596;13.112;2023-03-17T03:53:07;10.73;;;6.10;;
2724;SDS011;1370;52.596;13.112;2023-03-17T03:55:32;12.80;;;5.80;;
2724;SDS011;1370;52.596;13.112;2023-03-17T03:57:58;10.03;;;5.97;;
2724;SDS011;1370;52.596;13.112;2023-03-17T04:00:23;6.63;;;6.00;;
2724;SDS011;1370;52.596;13.112;2023-03-17T04:02:51;6.27;;;5.67;;
2724;SDS011;1370;52.596;13.112;2023-03-17T04:05:17;9.73;;;5.60;;
2724;SDS011;1370;52.596;13.112;2023-03-17T04:07:42;7.80;;;5.60;;
2724;SDS011;1370;52.596;13.112;2023-03-17T04:10:09;10.80;;;6.07;;
2724;SDS011;1370;52.596;13.112;2023-03-17T04:12:36;8.33;;;5.33;;
2724;SDS011;1370;52.596;13.112;2023-03-17T04:15:04;8.30;;;6.27;;
2724;SDS011;1370;52.596;13.112;2023-03-17T04:17:30;7.03;;;5.47;;
2724;SDS011;1370;52.596;13.112;2023-03-17T04:19:56;9.60;;;6.20;;
2724;SDS011;1370;52.596;13.112;2023-03-17T04:22:22;13.20;;;6.53;;
2724;SDS011;1370;52.596;13.112;2023-03-17T04:24:47;13.50;;;7.13;;
2724;SDS011;1370;52.596;13.112;2023-03-17T04:27:12;7.20;;;5.87;;
2724;SDS011;1370;52.596;13.112;2023-03-17T04:29:39;6.00;;;5.40;;
2724;SDS011;1370;52.596;13.112;2023-03-17T04:32:12;7.33;;;6.63;;
2724;SDS011;1370;52.596;13.112;2023-03-17T04:34:39;7.20;;;6.50;;
2724;SDS011;1370;52.596;13.112;2023-03-17T04:37:05;8.20;;;6.40;;
2724;SDS011;1370;52.596;13.112;2023-03-17T04:39:31;7.03;;;6.33;;
2724;SDS011;1370;52.596;13.112;2023-03-17T04:41:56;10.00;;;7.33;;
2724;SDS011;1370;52.596;13.112;2023-03-17T04:44:21;7.70;;;6.47;;
2724;SDS011;1370;52.596;13.112;2023-03-17T04:46:47;10.47;;;6.43;;
2724;SDS011;1370;52.596;13.112;2023-03-17T04:49:12;5.83;;;5.33;;
2724;SDS011;1370;52.596;13.112;2023-03-17T04:51:37;7.80;;;6.30;;
2724;SDS011;1370;52.596;13.112;2023-03-17T04:54:03;7.93;;;5.93;;
2724;SDS011;1370;52.596;13.112;2023-03-17T04:56:28;8.50;;;6.90;;
2724;SDS011;1370;52.596;13.112;2023-03-17T04:58:54;7.67;;;6.97;;
2724;SDS011;1370;52.596;13.112;2023-03-17T05:01:19;10.07;;;5.70;;
2724;SDS011;1370;52.596;13.112;2023-03-17T05:03:48;7.30;;;6.30;;
2724;SDS011;1370;52.596;13.112;2023-03-17T05:06:14;8.60;;;5.67;;
2724;SDS011;1370;52.596;13.112;2023-03-17T05:08:40;7.60;;;6.73;;
2724;SDS011;1370;52.596;13.112;2023-03-17T05:11:07;9.33;;;6.00;;
2724;SDS011;1370;52.596;13.112;2023-03-17T05:13:33;7.83;;;6.47;;
2724;SDS011;1370;52.596;13.112;2023-03-17T05:15:58;10.43;;;6.53;;
2724;SDS011;1370;52.596;13.112;2023-03-17T05:18:25;8.27;;;5.90;;
2724;SDS011;1370;52.596;13.112;2023-03-17T05:21:02;8.10;;;6.50;;
2724;SDS011;1370;52.596;13.112;2023-03-17T05:23:28;10.10;;;6.80;;
2724;SDS011;1370;52.596;13.112;2023-03-17T05:25:57;7.83;;;5.87;;
2724;SDS011;1370;52.596;13.112;2023-03-17T05:28:23;7.17;;;5.67;;
2724;SDS011;1370;52.596;13.112;2023-03-17T05:30:48;8.87;;;6.37;;
2724;SDS011;1370;52.596;13.112;2023-03-17T05:33:17;10.60;;;6.20;;
2724;SDS011;1370;52.596;13.112;2023-03-17T05:35:42;7.33;;;6.20;;
2724;SDS011;1370;52.596;13.112;2023-03-17T05:38:08;6.00;;;5.53;;
2724;SDS011;1370;52.596;13.112;2023-03-17T05:40:35;8.80;;;6.37;;
2724;SDS011;1370;52.596;13.112;2023-03-17T05:43:03;7.27;;;5.93;;
2724;SDS011;1370;52.596;13.112;2023-03-17T05:45:34;8.43;;;6.00;;
2724;SDS011;1370;52.596;13.112;2023-03-17T05:48:05;8.33;;;5.70;;
2724;SDS011;1370;52.596;13.112;2023-03-17T05:50:31;7.57;;;5.90;;
2724;SDS011;1370;52.596;13.112;2023-03-17T05:52:57;9.90;;;6.10;;
2724;SDS011;1370;52.596;13.112;2023-03-17T05:55:31;11.10;;;7.17;;
2724;SDS011;1370;52.596;13.112;2023-03-17T05:57:56;9.33;;;6.30;;
2724;SDS011;1370;52.596;13.112;2023-03-17T06:00:21;6.30;;;5.70;;
2724;SDS011;1370;52.596;13.112;2023-03-17T06:02:47;6.63;;;6.07;;
2724;SDS011;1370;52.596;13.112;2023-03-17T06:05:16;5.80;;;5.30;;
2724;SDS011;1370;52.596;13.112;2023-03-17T06:07:41;6.43;;;5.70;;
2724;SDS011;1370;52.596;13.112;2023-03-17T06:10:07;5.67;;;5.17;;
2724;SDS011;1370;52.596;13.112;2023-03-17T06:12:32;6.50;;;5.63;;
2724;SDS011;1370;52.596;13.112;2023-03-17T06:14:58;15.97;;;5.83;;
2724;SDS011;1370;52.596;13.112;2023-03-17T06:17:26;6.53;;;5.43;;
2724;SDS011;1370;52.596;13.112;2023-03-17T06:19:51;8.50;;;5.13;;
2724;SDS011;1370;52.596;13.112;2023-03-17T06:22:17;9.77;;;6.07;;
2724;SDS011;1370;52.596;13.112;2023-03-17T06:24:42;6.33;;;5.70;;
2724;SDS011;1370;52.596;13.112;2023-03-17T06:27:10;7.17;;;5.23;;
2724;SDS011;1370;52.596;13.112;2023-03-17T06:29:38;9.43;;;5.60;;
2724;SDS011;1370;52.596;13.112;2023-03-17T06:32:03;5.80;;;5.20;;
2724;SDS011;1370;52.596;13.112;2023-03-17T06:34:29;6.13;;;4.90;;
2724;SDS011;1370;52.596;13.112;2023-03-17T06:36:55;14.23;;;9.03;;
2724;SDS011;1370;52.596;13.112;2023-03-17T06:39:23;10.53;;;7.67;;
2724;SDS011;1370;52.596;13.112;2023-03-17T06:41:49;20.97;;;11.70;;
2724;SDS011;1370;52.596;13.112;2023-03-17T06:44:17;76.43;;;36.90;;
2724;SDS011;1370;52.596;13.112;2023-03-17T06:46:42;67.20;;;30.77;;
2724;SDS011;1370;52.596;13.112;2023-03-17T06:49:07;17.67;;;9.90;;
2724;SDS011;1370;52.596;13.112;2023-03-17T06:51:33;13.77;;;7.37;;
2724;SDS011;1370;52.596;13.112;2023-03-17T06:54:01;10.70;;;5.50;;
2724;SDS011;1370;52.596;13.112;2023-03-17T06:56:28;18.20;;;10.70;;
2724;SDS011;1370;52.596;13.112;2023-03-17T06:58:57;13.40;;;9.07;;
2724;SDS011;1370;52.596;13.112;2023-03-17T07:01:23;11.33;;;8.73;;
2724;SDS011;1370;52.596;13.112;2023-03-17T07:03:49;8.80;;;7.13;;
2724;SDS011;1370;52.596;13.112;2023-03-17T07:06:15;9.60;;;8.63;;
2724;SDS011;1370;52.596;13.112;2023-03-17T07:08:41;21.93;;;19.27;;
2724;SDS011;1370;52.596;13.112;2023-03-17T07:11:10;15.53;;;14.00;;
2724;SDS011;1370;52.596;13.112;2023-03-17T07:13:36;22.20;;;14.40;;
2724;SDS011;1370;52.596;13.112;2023-03-17T07:16:02;12.33;;;9.93;;
2724;SDS011;1370;52.596;13.112;2023-03-17T07:18:28;9.00;;;6.60;;
2724;SDS011;1370;52.596;13.112;2023-03-17T07:20:57;7.80;;;7.20;;
2724;SDS011;1370;52.596;13.112;2023-03-17T07:23:23;6.40;;;5.80;;
2724;SDS011;1370;52.596;13.112;2023-03-17T07:25:49;8.70;;;7.80;;
2724;SDS011;1370;52.596;13.112;2023-03-17T07:28:15;12.00;;;6.87;;
2724;SDS011;1370;52.596;13.112;2023-03-17T07:30:41;6.03;;;5.30;;
2724;SDS011;1370;52.596;13.112;2023-03-17T07:33:11;6.30;;;4.80;;
2724;SDS011;1370;52.596;13.112;2023-03-17T07:35:37;12.00;;;4.77;;
2724;SDS011;1370;52.596;13.112;2023-03-17T07:38:02;6.70;;;5.90;;
2724;SDS011;1370;52.596;13.112;2023-03-17T07:40:27;4.20;;;3.80;;
2724;SDS011;1370;52.596;13.112;2023-03-17T07:42:53;6.47;;;5.03;;
2724;SDS011;1370;52.596;13.112;2023-03-17T07:45:19;11.20;;;5.57;;
2724;SDS011;1370;52.596;13.112;2023-03-17T07:47:44;6.13;;;4.97;;
2724;SDS011;1370;52.596;13.112;2023-03-17T07:50:10;8.43;;;5.40;;
2724;SDS011;1370;52.596;13.112;2023-03-17T07:52:35;7.97;;;5.40;;
2724;SDS011;1370;52.596;13.112;2023-03-17T07:55:01;7.93;;;5.20;;
2724;SDS011;1370;52.596;13.112;2023-03-17T07:57:27;6.07;;;5.47;;
2724;SDS011;1370;52.596;13.112;2023-03-17T07:59:52;9.70;;;6.70;;
2724;SDS011;1370;52.596;13.112;2023-03-17T08:02:18;9.63;;;5.23;;
2724;SDS011;1370;52.596;13.112;2023-03-17T08:04:44;5.80;;;5.20;;
2724;SDS011;1370;52.596;13.112;2023-03-17T08:07:10;6.53;;;5.30;;
2724;SDS011;1370;52.596;13.112;2023-03-17T08:09:36;8.90;;;4.87;;
2724;SDS011;1370;52.596;13.112;2023-03-17T08:12:02;9.00;;;4.87;;
2724;SDS011;1370;52.596;13.112;2023-03-17T08:14:28;6.57;;;5.90;;
2724;SDS011;1370;52.596;13.112;2023-03-17T08:16:54;9.47;;;5.30;;
2724;SDS011;1370;52.596;13.112;2023-03-17T08:19:19;6.30;;;5.43;;
2724;SDS011;1370;52.596;13.112;2023-03-17T08:21:46;7.50;;;4.47;;
2724;SDS011;1370;52.596;13.112;2023-03-17T08:24:11;6.47;;;4.93;;
2724;SDS011;1370;52.596;13.112;2023-03-17T08:26:37;6.80;;;4.83;;
2724;SDS011;1370;52.596;13.112;2023-03-17T08:29:02;9.47;;;5.27;;
2724;SDS011;1370;52.596;13.112;2023-03-17T08:31:28;14.87;;;5.53;;
2724;SDS011;1370;52.596;13.112;2023-03-17T08:33:54;5.03;;;4.63;;
2724;SDS011;1370;52.596;13.112;2023-03-17T08:36:23;5.10;;;4.27;;
2724;SDS011;1370;52.596;13.112;2023-03-17T08:38:50;6.87;;;5.23;;
2724;SDS011;1370;52.596;13.112;2023-03-17T08:41:16;5.90;;;4.50;;
2724;SDS011;1370;52.596;13.112;2023-03-17T08:43:44;7.30;;;5.30;;
2724;SDS011;1370;52.596;13.112;2023-03-17T08:46:14;7.73;;;4.83;;
2724;SDS011;1370;52.596;13.112;2023-03-17T08:48:43;8.23;;;5.37;;
2724;SDS011;1370;52.596;13.112;2023-03-17T08:51:09;5.97;;;5.37;;
2724;SDS011;1370;52.596;13.112;2023-03-17T08:53:34;5.13;;;4.23;;
2724;SDS011;1370;52.596;13.112;2023-03-17T08:56:01;5.20;;;4.37;;
2724;SDS011;1370;52.596;13.112;2023-03-17T08:58:26;10.03;;;6.40;;
2724;SDS011;1370;52.596;13.112;2023-03-17T09:00:52;8.30;;;5.33;;
2724;SDS011;1370;52.596;13.112;2023-03-17T09:03:18;7.70;;;5.20;;
2724;SDS011;1370;52.596;13.112;2023-03-17T09:05:44;6.40;;;4.73;;
2724;SDS011;1370;52.596;13.112;2023-03-17T09:08:10;5.73;;;5.23;;
2724;SDS011;1370;52.596;13.112;2023-03-17T09:10:36;13.83;;;6.43;;
2724;SDS011;1370;52.596;13.112;2023-03-17T09:13:02;7.47;;;4.50;;
2724;SDS011;1370;52.596;13.112;2023-03-17T09:15:30;10.30;;;4.77;;
2724;SDS011;1370;52.596;13.112;2023-03-17T09:17:57;6.17;;;4.93;;
2724;SDS011;1370;52.596;13.112;2023-03-17T09:20:22;5.73;;;4.40;;
2724;SDS011;1370;52.596;13.112;2023-03-17T09:22:48;5.20;;;4.03;;
2724;SDS011;1370;52.596;13.112;2023-03-17T09:25:14;4.80;;;4.27;;
2724;SDS011;1370;52.596;13.112;2023-03-17T09:27:40;6.70;;;5.60;;
2724;SDS011;1370;52.596;13.112;2023-03-17T09:30:05;7.87;;;4.80;;
2724;SDS011;1370;52.596;13.112;2023-03-17T09:32:31;7.20;;;5.50;;
2724;SDS011;1370;52.596;13.112;2023-03-17T09:34:56;8.63;;;5.40;;
2724;SDS011;1370;52.596;13.112;2023-03-17T09:37:22;5.20;;;4.70;;
2724;SDS011;1370;52.596;13.112;2023-03-17T09:39:47;5.63;;;4.10;;
2724;SDS011;1370;52.596;13.112;2023-03-17T09:42:23;6.17;;;5.10;;
2724;SDS011;1370;52.596;13.112;2023-03-17T09:50:55;6.00;;;5.40;;
2724;SDS011;1370;52.596;13.112;2023-03-17T09:53:31;7.80;;;5.13;;
2724;SDS011;1370;52.596;13.112;2023-03-17T09:56:01;6.90;;;4.90;;
2724;SDS011;1370;52.596;13.112;2023-03-17T09:58:31;11.33;;;5.30;;
2724;SDS011;1370;52.596;13.112;2023-03-17T10:00:58;6.87;;;5.40;;
2724;SDS011;1370;52.596;13.112;2023-03-17T10:03:24;6.47;;;4.33;;
2724;SDS011;1370;52.596;13.112;2023-03-17T10:05:50;4.47;;;4.17;;
2724;SDS011;1370;52.596;13.112;2023-03-17T10:08:16;5.17;;;4.77;;
2724;SDS011;1370;52.596;13.112;2023-03-17T10:11:04;9.90;;;4.50;;
2724;SDS011;1370;52.596;13.112;2023-03-17T10:16:20;8.70;;;4.60;;
2724;SDS011;1370;52.596;13.112;2023-03-17T10:18:54;6.63;;;5.10;;
2724;SDS011;1370;52.596;13.112;2023-03-17T10:21:21;13.27;;;5.40;;
2724;SDS011;1370;52.596;13.112;2023-03-17T10:23:50;8.43;;;4.50;;
2724;SDS011;1370;52.596;13.112;2023-03-17T10:26:33;5.20;;;4.80;;
2724;SDS011;1370;52.596;13.112;2023-03-17T10:29:04;6.20;;;4.27;;
2724;SDS011;1370;52.596;13.112;2023-03-17T10:31:36;11.80;;;5.90;;
2724;SDS011;1370;52.596;13.112;2023-03-17T10:34:12;4.97;;;4.27;;
2724;SDS011;1370;52.596;13.112;2023-03-17T10:36:41;4.67;;;4.27;;
2724;SDS011;1370;52.596;13.112;2023-03-17T10:39:10;4.70;;;4.30;;
2724;SDS011;1370;52.596;13.112;2023-03-17T10:41:38;10.23;;;4.83;;
2724;SDS011;1370;52.596;13.112;2023-03-17T10:44:19;6.23;;;3.93;;
2724;SDS011;1370;52.596;13.112;2023-03-17T10:46:53;3.67;;;3.37;;
2724;SDS011;1370;52.596;13.112;2023-03-17T10:49:19;4.67;;;4.17;;
2724;SDS011;1370;52.596;13.112;2023-03-17T10:51:46;5.43;;;4.47;;
2724;SDS011;1370;52.596;13.112;2023-03-17T10:54:17;4.87;;;4.37;;
2724;SDS011;1370;52.596;13.112;2023-03-17T10:56:44;6.67;;;4.30;;
2724;SDS011;1370;52.596;13.112;2023-03-17T10:59:18;8.60;;;4.90;;
2724;SDS011;1370;52.596;13.112;2023-03-17T11:01:46;6.07;;;5.50;;
2724;SDS011;1370;52.596;13.112;2023-03-17T11:07:19;8.20;;;4.00;;
2724;SDS011;1370;52.596;13.112;2023-03-17T11:09:47;4.37;;;3.97;;
2724;SDS011;1370;52.596;13.112;2023-03-17T11:12:20;5.03;;;4.00;;
2724;SDS011;1370;52.596;13.112;2023-03-17T11:14:47;7.17;;;5.00;;
2724;SDS011;1370;52.596;13.112;2023-03-17T11:17:17;7.57;;;4.83;;
2724;SDS011;1370;52.596;13.112;2023-03-17T11:19:56;5.27;;;4.73;;
2724;SDS011;1370;52.596;13.112;2023-03-17T11:22:34;7.80;;;5.23;;
2724;SDS011;1370;52.596;13.112;2023-03-17T11:25:04;5.20;;;4.70;;
2724;SDS011;1370;52.596;13.112;2023-03-17T11:27:42;5.17;;;4.50;;
2724;SDS011;1370;52.596;13.112;2023-03-17T11:30:35;6.07;;;5.47;;
2724;SDS011;1370;52.596;13.112;2023-03-17T11:36:10;7.87;;;4.73;;
2724;SDS011;1370;52.596;13.112;2023-03-17T11:39:01;5.43;;;4.47;;
2724;SDS011;1370;52.596;13.112;2023-03-17T11:41:34;6.83;;;5.17;;
2724;SDS011;1370;52.596;13.112;2023-03-17T11:44:17;6.00;;;5.13;;
2724;SDS011;1370;52.596;13.112;2023-03-17T11:46:50;6.27;;;5.67;;
2724;SDS011;1370;52.596;13.112;2023-03-17T11:49:32;4.60;;;4.10;;
2724;SDS011;1370;52.596;13.112;2023-03-17T11:52:06;5.83;;;3.83;;
2724;SDS011;1370;52.596;13.112;2023-03-17T11:54:52;4.37;;;4.07;;
2724;SDS011;1370;52.596;13.112;2023-03-17T11:57:26;6.63;;;4.63;;
2724;SDS011;1370;52.596;13.112;2023-03-17T12:02:42;9.73;;;4.47;;
2724;SDS011;1370;52.596;13.112;2023-03-17T12:05:20;5.93;;;4.33;;
2724;SDS011;1370;52.596;13.112;2023-03-17T12:07:51;5.03;;;4.60;;
2724;SDS011;1370;52.596;13.112;2023-03-17T12:10:47;5.73;;;4.20;;
2724;SDS011;1370;52.596;13.112;2023-03-17T12:13:17;4.60;;;4.27;;
2724;SDS011;1370;52.596;13.112;2023-03-17T12:15:52;5.13;;;3.90;;
2724;SDS011;1370;52.596;13.112;2023-03-17T12:24:10;5.67;;;3.77;;
2724;SDS011;1370;52.596;13.112;2023-03-17T12:29:42;5.33;;;4.47;;
2724;SDS011;1370;52.596;13.112;2023-03-17T12:32:17;8.00;;;5.17;;
2724;SDS011;1370;52.596;13.112;2023-03-17T12:34:47;9.17;;;6.43;;
2724;SDS011;1370;52.596;13.112;2023-03-17T12:37:15;6.47;;;4.43;;
2724;SDS011;1370;52.596;13.112;2023-03-17T12:39:45;5.80;;;5.30;;
2724;SDS011;1370;52.596;13.112;2023-03-17T12:45:16;5.90;;;4.90;;
2724;SDS011;1370;52.596;13.112;2023-03-17T12:53:47;7.90;;;3.93;;
2724;SDS011;1370;52.596;13.112;2023-03-17T12:56:18;5.53;;;4.40;;
2724;SDS011;1370;52.596;13.112;2023-03-17T12:58:49;4.47;;;4.10;;
2724;SDS011;1370;52.596;13.112;2023-03-17T13:06:51;4.10;;;3.30;;
2724;SDS011;1370;52.596;13.112;2023-03-17T13:09:26;3.83;;;3.53;;
2724;SDS011;1370;52.596;13.112;2023-03-17T13:11:55;4.83;;;4.43;;
2724;SDS011;1370;52.596;13.112;2023-03-17T13:19:54;5.87;;;4.20;;
2724;SDS011;1370;52.596;13.112;2023-03-17T13:24:49;5.53;;;3.80;;
2724;SDS011;1370;52.596;13.112;2023-03-17T13:29:55;5.60;;;4.30;;
2724;SDS011;1370;52.596;13.112;2023-03-17T13:37:27;9.70;;;4.40;;
2724;SDS011;1370;52.596;13.112;2023-03-17T13:43:17;4.20;;;3.80;;
2724;SDS011;1370;52.596;13.112;2023-03-17T13:45:54;5.03;;;3.90;;
2724;SDS011;1370;52.596;13.112;2023-03-17T13:48:30;9.27;;;4.30;;
2724;SDS011;1370;52.596;13.112;2023-03-17T13:51:03;4.20;;;3.50;;
2724;SDS011;1370;52.596;13.112;2023-03-17T13:53:39;4.10;;;3.70;;
2724;SDS011;1370;52.596;13.112;2023-03-17T13:56:20;4.30;;;3.90;;
2724;SDS011;1370;52.596;13.112;2023-03-17T14:01:27;3.53;;;3.20;;
2724;SDS011;1370;52.596;13.112;2023-03-17T14:03:53;3.67;;;3.37;;
2724;SDS011;1370;52.596;13.112;2023-03-17T14:06:21;4.20;;;3.90;;
2724;SDS011;1370;52.596;13.112;2023-03-17T14:08:54;4.53;;;3.87;;
2724;SDS011;1370;52.596;13.112;2023-03-17T14:11:39;4.40;;;4.10;;
2724;SDS011;1370;52.596;13.112;2023-03-17T14:16:46;4.50;;;3.63;;
2724;SDS011;1370;52.596;13.112;2023-03-17T14:19:18;5.30;;;4.13;;
2724;SDS011;1370;52.596;13.112;2023-03-17T14:21:45;3.90;;;3.63;;
2724;SDS011;1370;52.596;13.112;2023-03-17T14:24:21;5.80;;;4.40;;
2724;SDS011;1370;52.596;13.112;2023-03-17T14:26:53;9.93;;;4.00;;
2724;SDS011;1370;52.596;13.112;2023-03-17T14:29:20;5.70;;;3.87;;
2724;SDS011;1370;52.596;13.112;2023-03-17T14:31:58;5.73;;;3.80;;
2724;SDS011;1370;52.596;13.112;2023-03-17T14:34:28;3.90;;;3.53;;
2724;SDS011;1370;52.596;13.112;2023-03-17T14:36:53;8.23;;;4.50;;
2724;SDS011;1370;52.596;13.112;2023-03-17T14:39:23;3.97;;;3.30;;
2724;SDS011;1370;52.596;13.112;2023-03-17T14:41:56;4.73;;;4.33;;
2724;SDS011;1370;52.596;13.112;2023-03-17T14:44:23;5.10;;;3.53;;
2724;SDS011;1370;52.596;13.112;2023-03-17T14:46:48;3.53;;;3.23;;
2724;SDS011;1370;52.596;13.112;2023-03-17T14:49:17;4.10;;;3.70;;
2724;SDS011;1370;52.596;13.112;2023-03-17T14:51:44;6.07;;;3.73;;
2724;SDS011;1370;52.596;13.112;2023-03-17T14:54:19;9.63;;;4.53;;
2724;SDS011;1370;52.596;13.112;2023-03-17T14:57:07;5.37;;;4.00;;
2724;SDS011;1370;52.596;13.112;2023-03-17T14:59:39;4.40;;;3.40;;
2724;SDS011;1370;52.596;13.112;2023-03-17T15:02:22;4.13;;;3.70;;
2724;SDS011;1370;52.596;13.112;2023-03-17T15:04:53;3.43;;;2.90;;
2724;SDS011;1370;52.596;13.112;2023-03-17T15:07:40;5.23;;;4.30;;
2724;SDS011;1370;52.596;13.112;2023-03-17T15:10:13;3.40;;;3.10;;
2724;SDS011;1370;52.596;13.112;2023-03-17T15:12:45;3.90;;;3.60;;
2724;SDS011;1370;52.596;13.112;2023-03-17T15:15:22;3.77;;;3.37;;
2724;SDS011;1370;52.596;13.112;2023-03-17T15:17:50;4.53;;;3.37;;
2724;SDS011;1370;52.596;13.112;2023-03-17T15:20:18;3.97;;;3.77;;
2724;SDS011;1370;52.596;13.112;2023-03-17T15:22:48;3.30;;;3.00;;
2724;SDS011;1370;52.596;13.112;2023-03-17T15:27:55;3.20;;;2.90;;
2724;SDS011;1370;52.596;13.112;2023-03-17T15:30:20;4.37;;;3.10;;
2724;SDS011;1370;52.596;13.112;2023-03-17T15:32:56;4.70;;;3.43;;
2724;SDS011;1370;52.596;13.112;2023-03-17T15:35:24;4.10;;;3.40;;
2724;SDS011;1370;52.596;13.112;2023-03-17T15:37:51;6.73;;;4.40;;
2724;SDS011;1370;52.596;13.112;2023-03-17T15:40:16;5.30;;;4.70;;
2724;SDS011;1370;52.596;13.112;2023-03-17T15:42:42;6.70;;;2.83;;
2724;SDS011;1370;52.596;13.112;2023-03-17T15:45:07;4.40;;;3.90;;
2724;SDS011;1370;52.596;13.112;2023-03-17T15:47:33;4.33;;;3.30;;
2724;SDS011;1370;52.596;13.112;2023-03-17T15:52:57;4.73;;;3.53;;
2724;SDS011;1370;52.596;13.112;2023-03-17T15:55:23;3.40;;;3.10;;
2724;SDS011;1370;52.596;13.112;2023-03-17T15:57:53;5.73;;;3.17;;
2724;SDS011;1370;52.596;13.112;2023-03-17T16:00:18;3.40;;;2.97;;
2724;SDS011;1370;52.596;13.112;2023-03-17T16:02:45;4.33;;;3.13;;
2724;SDS011;1370;52.596;13.112;2023-03-17T16:05:19;3.03;;;2.73;;
2724;SDS011;1370;52.596;13.112;2023-03-17T16:07:46;2.80;;;2.60;;
2724;SDS011;1370;52.596;13.112;2023-03-17T16:10:22;10.00;;;4.97;;
2724;SDS011;1370;52.596;13.112;2023-03-17T16:12:49;3.80;;;3.30;;
2724;SDS011;1370;52.596;13.112;2023-03-17T16:15:15;4.40;;;3.67;;
2724;SDS011;1370;52.596;13.112;2023-03-17T16:17:42;3.37;;;3.07;;
2724;SDS011;1370;52.596;13.112;2023-03-17T16:20:16;4.00;;;3.70;;
2724;SDS011;1370;52.596;13.112;2023-03-17T16:22:44;3.70;;;2.60;;
2724;SDS011;1370;52.596;13.112;2023-03-17T16:25:18;4.07;;;3.20;;